ROMMA est une association bénévole à but non lucratif. Votre soutien est indispensable : ADHERER à ROMMA ou FAIRE un DON

Briord - (01, Ain)

Bugey (281 m)   Longitude: 05° 29' 13" E   Latitude: 45° 46' 37" N Station partenaire n°15
 

Détail journalier du     <<     >>

Température Precipitation Humidité Pression Vent Dir Rafale Dir. rafale Ensol.
Heure (°C) (mm) (%) (hPa) (km/h) (km/h) (min)
01:00 22.3049101414N34N0
02:00 20.805310142NNE21N0
03:00 17.30651014010S0
04:00 14.9073101403NE0
05:00 13.7078101405ESE0
06:00 12.7081101405ESE0
07:00 11.7084101303SE0
08:00 11.1086101400---0
09:00 10.9088101400---0
10:00 12.3088101400---0
11:00 17.1075101405SE0
12:00 18.506910141ONO13NNO0
13:00 20.306510141OSO13O0
14:00 22.305810132O13O45
15:00 23.905810126ONO18NO60
16:00 25.605310126ONO26N50
17:00 26.8053101110NO27N60
18:00 26.8045101114NO34NO60
19:00 27.2045101016NO35O60
20:00 26.8044101017NO35NO60
21:00 26.0045101015NO32NNO60
22:00 24.2051101013N32NNE0
23:00 23.3055101110NO29NNO0
minuit 21.705710119NNO26NNE0

Graphique du 14-07-2019

 

Serveur OMMA